sensor_id;sensor_type;location;lat;lon;timestamp;pressure;altitude;pressure_sealevel;temperature;humidity
28626;BME280;18905;42.668;23.364;2024-01-15T00:02:20;94560.13;;;-1.06;59.96
28626;BME280;18905;42.668;23.364;2024-01-15T00:04:45;94562.81;;;-0.96;59.62
28626;BME280;18905;42.668;23.364;2024-01-15T00:07:11;94554.16;;;-1.00;59.12
28626;BME280;18905;42.668;23.364;2024-01-15T00:09:36;94555.34;;;-1.52;61.20
28626;BME280;18905;42.668;23.364;2024-01-15T00:12:02;94548.91;;;-1.60;61.08
28626;BME280;18905;42.668;23.364;2024-01-15T00:14:28;94552.28;;;-1.54;61.15
28626;BME280;18905;42.668;23.364;2024-01-15T00:16:53;94545.75;;;-1.67;61.47
28626;BME280;18905;42.668;23.364;2024-01-15T00:19:21;94555.56;;;-1.54;61.80
28626;BME280;18905;42.668;23.364;2024-01-15T00:21:47;94538.91;;;-1.38;61.49
28626;BME280;18905;42.668;23.364;2024-01-15T00:24:12;94551.09;;;-1.80;63.16
28626;BME280;18905;42.668;23.364;2024-01-15T00:26:38;94558.66;;;-1.80;63.47
28626;BME280;18905;42.668;23.364;2024-01-15T00:29:03;94543.41;;;-1.57;63.60
28626;BME280;18905;42.668;23.364;2024-01-15T00:31:29;94545.88;;;-1.45;62.73
28626;BME280;18905;42.668;23.364;2024-01-15T00:33:55;94546.03;;;-1.35;62.44
28626;BME280;18905;42.668;23.364;2024-01-15T00:36:21;94542.22;;;-1.82;62.90
28626;BME280;18905;42.668;23.364;2024-01-15T00:38:46;94555.56;;;-1.70;62.72
28626;BME280;18905;42.668;23.364;2024-01-15T00:41:13;94555.47;;;-1.75;62.55
28626;BME280;18905;42.668;23.364;2024-01-15T00:43:38;94550.72;;;-1.72;62.96
28626;BME280;18905;42.668;23.364;2024-01-15T00:46:04;94561.31;;;-1.58;62.68
28626;BME280;18905;42.668;23.364;2024-01-15T00:48:30;94552.91;;;-1.47;62.47
28626;BME280;18905;42.668;23.364;2024-01-15T00:50:55;94546.63;;;-1.45;62.17
28626;BME280;18905;42.668;23.364;2024-01-15T00:53:20;94550.91;;;-1.28;62.04
28626;BME280;18905;42.668;23.364;2024-01-15T00:55:49;94557.75;;;-1.12;61.17
28626;BME280;18905;42.668;23.364;2024-01-15T00:58:14;94560.66;;;-1.04;61.07
28626;BME280;18905;42.668;23.364;2024-01-15T01:00:40;94551.84;;;-1.01;60.56
28626;BME280;18905;42.668;23.364;2024-01-15T01:03:06;94559.34;;;-1.06;61.02
28626;BME280;18905;42.668;23.364;2024-01-15T01:05:33;94552.38;;;-0.99;60.93
28626;BME280;18905;42.668;23.364;2024-01-15T01:07:59;94553.59;;;-1.02;60.68
28626;BME280;18905;42.668;23.364;2024-01-15T01:10:24;94550.75;;;-2.00;63.37
28626;BME280;18905;42.668;23.364;2024-01-15T01:12:49;94548.25;;;-2.11;64.28
28626;BME280;18905;42.668;23.364;2024-01-15T01:15:15;94529.28;;;-1.86;63.02
28626;BME280;18905;42.668;23.364;2024-01-15T01:17:40;94541.66;;;-1.56;62.33
28626;BME280;18905;42.668;23.364;2024-01-15T01:20:06;94546.63;;;-1.45;61.55
28626;BME280;18905;42.668;23.364;2024-01-15T01:22:33;94542.50;;;-1.34;61.75
28626;BME280;18905;42.668;23.364;2024-01-15T01:24:59;94544.13;;;-1.28;61.07
28626;BME280;18905;42.668;23.364;2024-01-15T01:27:24;94547.25;;;-1.21;61.50
28626;BME280;18905;42.668;23.364;2024-01-15T01:29:49;94537.06;;;-1.09;60.52
28626;BME280;18905;42.668;23.364;2024-01-15T01:32:15;94532.25;;;-1.44;60.85
28626;BME280;18905;42.668;23.364;2024-01-15T01:34:41;94527.50;;;-1.57;60.89
28626;BME280;18905;42.668;23.364;2024-01-15T01:37:10;94519.28;;;-1.64;61.81
28626;BME280;18905;42.668;23.364;2024-01-15T01:39:38;94526.34;;;-1.50;61.15
28626;BME280;18905;42.668;23.364;2024-01-15T01:42:03;94516.53;;;-1.79;60.87
28626;BME280;18905;42.668;23.364;2024-01-15T01:44:29;94525.59;;;-2.35;63.24
28626;BME280;18905;42.668;23.364;2024-01-15T01:46:54;94516.84;;;-2.44;63.34
28626;BME280;18905;42.668;23.364;2024-01-15T01:49:20;94520.44;;;-2.91;65.86
28626;BME280;18905;42.668;23.364;2024-01-15T01:51:46;94534.25;;;-2.82;65.24
28626;BME280;18905;42.668;23.364;2024-01-15T01:54:12;94521.09;;;-2.84;65.50
28626;BME280;18905;42.668;23.364;2024-01-15T01:56:39;94526.25;;;-2.91;65.97
28626;BME280;18905;42.668;23.364;2024-01-15T01:59:06;94521.09;;;-2.72;64.89
28626;BME280;18905;42.668;23.364;2024-01-15T02:01:33;94517.75;;;-2.50;64.50
28626;BME280;18905;42.668;23.364;2024-01-15T02:03:58;94506.97;;;-2.34;64.43
28626;BME280;18905;42.668;23.364;2024-01-15T02:06:25;94513.47;;;-2.09;63.70
28626;BME280;18905;42.668;23.364;2024-01-15T02:08:50;94503.56;;;-1.99;63.14
28626;BME280;18905;42.668;23.364;2024-01-15T02:11:15;94507.41;;;-1.80;61.73
28626;BME280;18905;42.668;23.364;2024-01-15T02:13:41;94494.09;;;-1.76;61.74
28626;BME280;18905;42.668;23.364;2024-01-15T02:16:06;94501.16;;;-1.61;61.08
28626;BME280;18905;42.668;23.364;2024-01-15T02:18:42;94495.97;;;-1.55;60.28
28626;BME280;18905;42.668;23.364;2024-01-15T02:21:08;94484.09;;;-1.54;60.55
28626;BME280;18905;42.668;23.364;2024-01-15T02:23:33;94482.63;;;-1.50;60.56
28626;BME280;18905;42.668;23.364;2024-01-15T02:25:59;94468.09;;;-1.43;60.33
28626;BME280;18905;42.668;23.364;2024-01-15T02:28:24;94455.63;;;-1.50;60.09
28626;BME280;18905;42.668;23.364;2024-01-15T02:30:49;94450.50;;;-1.38;59.94
28626;BME280;18905;42.668;23.364;2024-01-15T02:33:15;94432.56;;;-1.53;59.59
28626;BME280;18905;42.668;23.364;2024-01-15T02:35:40;94439.03;;;-2.52;62.67
28626;BME280;18905;42.668;23.364;2024-01-15T02:38:07;94440.16;;;-2.31;63.94
28626;BME280;18905;42.668;23.364;2024-01-15T02:40:33;94437.41;;;-2.30;63.66
28626;BME280;18905;42.668;23.364;2024-01-15T02:42:58;94443.34;;;-2.07;62.82
28626;BME280;18905;42.668;23.364;2024-01-15T02:45:24;94439.00;;;-1.95;62.04
28626;BME280;18905;42.668;23.364;2024-01-15T02:47:49;94436.56;;;-1.90;61.79
28626;BME280;18905;42.668;23.364;2024-01-15T02:50:15;94433.19;;;-1.96;61.15
28626;BME280;18905;42.668;23.364;2024-01-15T02:52:41;94439.06;;;-2.63;63.41
28626;BME280;18905;42.668;23.364;2024-01-15T02:55:07;94440.72;;;-3.20;65.70
28626;BME280;18905;42.668;23.364;2024-01-15T02:57:33;94444.66;;;-3.71;68.16
28626;BME280;18905;42.668;23.364;2024-01-15T02:59:58;94442.13;;;-3.94;69.36
28626;BME280;18905;42.668;23.364;2024-01-15T03:02:24;94448.78;;;-3.88;69.05
28626;BME280;18905;42.668;23.364;2024-01-15T03:04:49;94443.31;;;-3.96;70.30
28626;BME280;18905;42.668;23.364;2024-01-15T03:07:15;94442.88;;;-3.82;69.62
28626;BME280;18905;42.668;23.364;2024-01-15T03:09:40;94437.09;;;-3.71;69.94
28626;BME280;18905;42.668;23.364;2024-01-15T03:12:06;94435.13;;;-3.34;68.67
28626;BME280;18905;42.668;23.364;2024-01-15T03:14:31;94436.84;;;-3.00;67.93
28626;BME280;18905;42.668;23.364;2024-01-15T03:16:57;94432.84;;;-2.72;66.43
28626;BME280;18905;42.668;23.364;2024-01-15T03:19:22;94420.31;;;-2.56;65.34
28626;BME280;18905;42.668;23.364;2024-01-15T03:21:48;94421.19;;;-2.90;66.04
28626;BME280;18905;42.668;23.364;2024-01-15T03:24:13;94427.72;;;-2.89;65.93
28626;BME280;18905;42.668;23.364;2024-01-15T03:26:38;94443.34;;;-3.27;67.10
28626;BME280;18905;42.668;23.364;2024-01-15T03:29:04;94426.38;;;-3.20;67.17
28626;BME280;18905;42.668;23.364;2024-01-15T03:31:29;94414.44;;;-3.24;66.90
28626;BME280;18905;42.668;23.364;2024-01-15T03:33:55;94429.91;;;-3.55;68.03
28626;BME280;18905;42.668;23.364;2024-01-15T03:36:20;94419.25;;;-3.34;67.31
28626;BME280;18905;42.668;23.364;2024-01-15T03:38:46;94413.91;;;-3.38;67.01
28626;BME280;18905;42.668;23.364;2024-01-15T03:41:12;94410.50;;;-3.43;66.97
28626;BME280;18905;42.668;23.364;2024-01-15T03:43:37;94399.91;;;-3.92;69.07
28626;BME280;18905;42.668;23.364;2024-01-15T03:46:03;94415.34;;;-3.53;68.42
28626;BME280;18905;42.668;23.364;2024-01-15T03:48:29;94410.91;;;-3.23;68.08
28626;BME280;18905;42.668;23.364;2024-01-15T03:50:55;94417.25;;;-2.98;66.69
28626;BME280;18905;42.668;23.364;2024-01-15T03:53:20;94415.59;;;-2.64;65.91
28626;BME280;18905;42.668;23.364;2024-01-15T03:55:46;94411.69;;;-2.43;64.94
28626;BME280;18905;42.668;23.364;2024-01-15T03:58:11;94400.28;;;-2.17;64.38
28626;BME280;18905;42.668;23.364;2024-01-15T04:00:36;94410.91;;;-1.99;63.46
28626;BME280;18905;42.668;23.364;2024-01-15T04:03:02;94406.97;;;-1.95;63.22
28626;BME280;18905;42.668;23.364;2024-01-15T04:05:27;94409.06;;;-2.03;64.18
28626;BME280;18905;42.668;23.364;2024-01-15T04:07:53;94396.47;;;-1.87;63.38
28626;BME280;18905;42.668;23.364;2024-01-15T04:10:18;94392.03;;;-1.96;63.35
28626;BME280;18905;42.668;23.364;2024-01-15T04:12:43;94382.22;;;-1.76;63.01
28626;BME280;18905;42.668;23.364;2024-01-15T04:15:12;94394.94;;;-1.71;62.07
28626;BME280;18905;42.668;23.364;2024-01-15T04:17:37;94389.06;;;-1.77;63.12
28626;BME280;18905;42.668;23.364;2024-01-15T04:20:03;94388.03;;;-1.59;62.30
28626;BME280;18905;42.668;23.364;2024-01-15T04:22:28;94380.44;;;-1.42;61.59
28626;BME280;18905;42.668;23.364;2024-01-15T04:24:54;94391.28;;;-1.42;61.51
28626;BME280;18905;42.668;23.364;2024-01-15T04:27:19;94385.78;;;-1.39;61.19
28626;BME280;18905;42.668;23.364;2024-01-15T04:29:44;94379.34;;;-1.30;60.41
28626;BME280;18905;42.668;23.364;2024-01-15T04:32:10;94394.91;;;-1.38;61.19
28626;BME280;18905;42.668;23.364;2024-01-15T04:34:35;94393.44;;;-1.34;60.79
28626;BME280;18905;42.668;23.364;2024-01-15T04:37:01;94394.50;;;-1.47;60.91
28626;BME280;18905;42.668;23.364;2024-01-15T04:39:26;94392.16;;;-1.53;61.85
28626;BME280;18905;42.668;23.364;2024-01-15T04:41:51;94392.31;;;-1.60;61.35
28626;BME280;18905;42.668;23.364;2024-01-15T04:44:17;94392.88;;;-1.74;61.71
28626;BME280;18905;42.668;23.364;2024-01-15T04:46:42;94394.84;;;-1.76;61.77
28626;BME280;18905;42.668;23.364;2024-01-15T04:49:09;94385.53;;;-1.76;62.01
28626;BME280;18905;42.668;23.364;2024-01-15T04:51:34;94371.44;;;-1.72;61.94
28626;BME280;18905;42.668;23.364;2024-01-15T04:54:00;94377.34;;;-1.66;61.64
28626;BME280;18905;42.668;23.364;2024-01-15T04:56:25;94386.66;;;-1.67;61.44
28626;BME280;18905;42.668;23.364;2024-01-15T04:58:50;94374.28;;;-1.68;61.34
28626;BME280;18905;42.668;23.364;2024-01-15T05:01:16;94372.47;;;-1.51;75.82
28626;BME280;18905;42.668;23.364;2024-01-15T05:03:42;94377.81;;;-0.66;81.59
28626;BME280;18905;42.668;23.364;2024-01-15T05:06:08;94377.38;;;0.00;69.35
28626;BME280;18905;42.668;23.364;2024-01-15T05:08:33;94374.31;;;0.72;61.29
28626;BME280;18905;42.668;23.364;2024-01-15T05:10:58;94369.97;;;1.19;58.96
28626;BME280;18905;42.668;23.364;2024-01-15T05:13:24;94358.56;;;1.22;53.95
28626;BME280;18905;42.668;23.364;2024-01-15T05:15:49;94357.34;;;0.78;53.69
28626;BME280;18905;42.668;23.364;2024-01-15T05:18:15;94358.53;;;-0.45;57.15
28626;BME280;18905;42.668;23.364;2024-01-15T05:20:42;94349.47;;;-1.71;59.61
28626;BME280;18905;42.668;23.364;2024-01-15T05:23:08;94351.22;;;-2.71;63.64
28626;BME280;18905;42.668;23.364;2024-01-15T05:25:33;94354.84;;;-1.84;82.42
28626;BME280;18905;42.668;23.364;2024-01-15T05:27:58;94364.25;;;-1.80;63.71
28626;BME280;18905;42.668;23.364;2024-01-15T05:30:24;94369.94;;;-2.51;64.71
28626;BME280;18905;42.668;23.364;2024-01-15T05:32:49;94352.38;;;-2.62;64.60
28626;BME280;18905;42.668;23.364;2024-01-15T05:35:15;94351.94;;;-3.39;68.18
28626;BME280;18905;42.668;23.364;2024-01-15T05:37:44;94352.59;;;-2.92;67.20
28626;BME280;18905;42.668;23.364;2024-01-15T05:40:11;94341.13;;;-3.51;69.09
28626;BME280;18905;42.668;23.364;2024-01-15T05:42:36;94342.38;;;-2.85;67.57
28626;BME280;18905;42.668;23.364;2024-01-15T05:45:02;94353.06;;;-2.50;66.00
28626;BME280;18905;42.668;23.364;2024-01-15T05:47:29;94348.13;;;-2.29;65.80
28626;BME280;18905;42.668;23.364;2024-01-15T05:49:56;94342.75;;;-1.99;63.96
28626;BME280;18905;42.668;23.364;2024-01-15T05:52:22;94321.75;;;-2.04;64.34
28626;BME280;18905;42.668;23.364;2024-01-15T05:54:48;94321.97;;;-1.89;64.11
28626;BME280;18905;42.668;23.364;2024-01-15T05:57:13;94320.28;;;-1.84;63.79
28626;BME280;18905;42.668;23.364;2024-01-15T05:59:38;94325.44;;;-1.57;63.69
28626;BME280;18905;42.668;23.364;2024-01-15T06:02:04;94324.19;;;-1.55;63.32
28626;BME280;18905;42.668;23.364;2024-01-15T06:04:29;94340.41;;;-2.22;65.35
28626;BME280;18905;42.668;23.364;2024-01-15T06:06:55;94358.56;;;-2.81;68.21
28626;BME280;18905;42.668;23.364;2024-01-15T06:09:20;94340.97;;;-2.93;69.65
28626;BME280;18905;42.668;23.364;2024-01-15T06:11:46;94343.97;;;-2.35;67.08
28626;BME280;18905;42.668;23.364;2024-01-15T06:14:11;94343.09;;;-1.95;66.33
28626;BME280;18905;42.668;23.364;2024-01-15T06:16:37;94337.91;;;-1.67;65.33
28626;BME280;18905;42.668;23.364;2024-01-15T06:19:02;94339.53;;;-1.39;63.84
28626;BME280;18905;42.668;23.364;2024-01-15T06:21:28;94327.25;;;-1.53;64.58
28626;BME280;18905;42.668;23.364;2024-01-15T06:23:53;94333.25;;;-1.37;63.95
28626;BME280;18905;42.668;23.364;2024-01-15T06:26:19;94324.81;;;-1.04;62.18
28626;BME280;18905;42.668;23.364;2024-01-15T06:28:44;94330.72;;;-0.45;62.05
28626;BME280;18905;42.668;23.364;2024-01-15T06:31:09;94324.47;;;-0.01;60.42
28626;BME280;18905;42.668;23.364;2024-01-15T06:33:35;94323.03;;;-0.24;59.51
28626;BME280;18905;42.668;23.364;2024-01-15T06:36:00;94340.84;;;-0.14;59.20
28626;BME280;18905;42.668;23.364;2024-01-15T06:38:26;94347.72;;;-0.09;58.94
28626;BME280;18905;42.668;23.364;2024-01-15T06:40:51;94340.13;;;-0.09;59.70
28626;BME280;18905;42.668;23.364;2024-01-15T06:43:17;94329.97;;;0.28;58.61
28626;BME280;18905;42.668;23.364;2024-01-15T06:45:43;94345.31;;;1.10;58.03
28626;BME280;18905;42.668;23.364;2024-01-15T06:48:09;94333.28;;;2.12;53.84
28626;BME280;18905;42.668;23.364;2024-01-15T06:50:34;94337.50;;;1.26;54.43
28626;BME280;18905;42.668;23.364;2024-01-15T06:52:59;94352.41;;;1.08;56.39
28626;BME280;18905;42.668;23.364;2024-01-15T06:55:25;94346.13;;;0.63;57.12
28626;BME280;18905;42.668;23.364;2024-01-15T06:57:51;94342.75;;;0.06;58.88
28626;BME280;18905;42.668;23.364;2024-01-15T07:00:17;94363.06;;;0.11;59.22
28626;BME280;18905;42.668;23.364;2024-01-15T07:02:44;94347.16;;;-0.11;60.44
28626;BME280;18905;42.668;23.364;2024-01-15T07:05:10;94349.41;;;-0.95;62.87
28626;BME280;18905;42.668;23.364;2024-01-15T07:07:36;94359.72;;;-0.80;63.14
28626;BME280;18905;42.668;23.364;2024-01-15T07:10:01;94348.28;;;-1.09;63.60
28626;BME280;18905;42.668;23.364;2024-01-15T07:12:28;94354.00;;;-0.92;63.93
28626;BME280;18905;42.668;23.364;2024-01-15T07:14:54;94354.84;;;-0.59;63.21
28626;BME280;18905;42.668;23.364;2024-01-15T07:17:20;94347.16;;;-0.69;63.70
28626;BME280;18905;42.668;23.364;2024-01-15T07:19:46;94361.25;;;-0.25;62.62
28626;BME280;18905;42.668;23.364;2024-01-15T07:22:11;94357.75;;;-0.19;62.38
28626;BME280;18905;42.668;23.364;2024-01-15T07:24:37;94360.47;;;0.06;61.46
28626;BME280;18905;42.668;23.364;2024-01-15T07:27:02;94344.34;;;0.17;60.77
28626;BME280;18905;42.668;23.364;2024-01-15T07:29:30;94341.94;;;0.37;59.76
28626;BME280;18905;42.668;23.364;2024-01-15T07:31:55;94336.44;;;0.14;60.54
28626;BME280;18905;42.668;23.364;2024-01-15T07:34:21;94343.44;;;0.33;60.11
28626;BME280;18905;42.668;23.364;2024-01-15T07:36:47;94333.25;;;-0.09;61.47
28626;BME280;18905;42.668;23.364;2024-01-15T07:39:12;94325.66;;;-0.40;62.01
28626;BME280;18905;42.668;23.364;2024-01-15T07:41:39;94348.75;;;-0.63;63.29
28626;BME280;18905;42.668;23.364;2024-01-15T07:44:05;94352.44;;;-0.18;62.80
28626;BME280;18905;42.668;23.364;2024-01-15T07:46:30;94337.28;;;-0.44;64.20
28626;BME280;18905;42.668;23.364;2024-01-15T07:48:55;94352.22;;;-0.43;62.99
28626;BME280;18905;42.668;23.364;2024-01-15T07:51:24;94368.13;;;-0.16;62.36
28626;BME280;18905;42.668;23.364;2024-01-15T07:53:50;94356.19;;;0.07;61.66
28626;BME280;18905;42.668;23.364;2024-01-15T07:56:16;94364.28;;;0.09;61.50
28626;BME280;18905;42.668;23.364;2024-01-15T07:58:42;94354.16;;;-0.77;64.23
28626;BME280;18905;42.668;23.364;2024-01-15T08:01:07;94362.63;;;-0.66;65.27
28626;BME280;18905;42.668;23.364;2024-01-15T08:03:33;94326.19;;;-0.65;63.82
28626;BME280;18905;42.668;23.364;2024-01-15T08:05:59;94314.63;;;-1.09;65.48
28626;BME280;18905;42.668;23.364;2024-01-15T08:08:25;94325.56;;;-1.04;65.09
28626;BME280;18905;42.668;23.364;2024-01-15T08:10:52;94332.88;;;-0.81;65.13
28626;BME280;18905;42.668;23.364;2024-01-15T08:13:17;94313.03;;;-0.67;64.01
28626;BME280;18905;42.668;23.364;2024-01-15T08:15:43;94337.66;;;-0.57;64.50
28626;BME280;18905;42.668;23.364;2024-01-15T08:18:08;94324.06;;;-0.51;63.72
28626;BME280;18905;42.668;23.364;2024-01-15T08:20:34;94330.78;;;-0.62;64.24
28626;BME280;18905;42.668;23.364;2024-01-15T08:23:00;94336.03;;;-0.10;63.18
28626;BME280;18905;42.668;23.364;2024-01-15T08:25:25;94345.41;;;0.26;62.02
28626;BME280;18905;42.668;23.364;2024-01-15T08:27:51;94346.66;;;0.24;62.14
28626;BME280;18905;42.668;23.364;2024-01-15T08:30:17;94344.25;;;0.96;60.35
28626;BME280;18905;42.668;23.364;2024-01-15T08:32:44;94338.84;;;1.49;59.30
28626;BME280;18905;42.668;23.364;2024-01-15T08:35:10;94327.94;;;1.89;56.48
28626;BME280;18905;42.668;23.364;2024-01-15T08:37:35;94322.09;;;1.68;56.83
28626;BME280;18905;42.668;23.364;2024-01-15T08:40:01;94320.31;;;1.99;55.80
28626;BME280;18905;42.668;23.364;2024-01-15T08:42:26;94313.41;;;2.19;56.80
28626;BME280;18905;42.668;23.364;2024-01-15T08:44:51;94304.38;;;3.36;52.49
28626;BME280;18905;42.668;23.364;2024-01-15T08:47:17;94320.44;;;4.33;48.70
28626;BME280;18905;42.668;23.364;2024-01-15T08:49:42;94297.09;;;5.16;47.15
28626;BME280;18905;42.668;23.364;2024-01-15T08:52:09;94298.81;;;5.57;45.54
28626;BME280;18905;42.668;23.364;2024-01-15T08:54:34;94302.16;;;5.58;45.39
28626;BME280;18905;42.668;23.364;2024-01-15T08:57:00;94305.72;;;5.38;44.94
28626;BME280;18905;42.668;23.364;2024-01-15T08:59:25;94306.13;;;5.45;44.71
28626;BME280;18905;42.668;23.364;2024-01-15T09:01:52;94296.69;;;5.46;44.72
28626;BME280;18905;42.668;23.364;2024-01-15T09:04:17;94297.09;;;5.16;45.81
28626;BME280;18905;42.668;23.364;2024-01-15T09:06:46;94284.38;;;4.92;47.33
28626;BME280;18905;42.668;23.364;2024-01-15T09:09:12;94276.94;;;5.33;44.79
28626;BME280;18905;42.668;23.364;2024-01-15T09:11:39;94275.78;;;5.44;44.49
28626;BME280;18905;42.668;23.364;2024-01-15T09:14:04;94264.13;;;5.38;44.37
28626;BME280;18905;42.668;23.364;2024-01-15T09:16:30;94241.94;;;5.15;45.38
28626;BME280;18905;42.668;23.364;2024-01-15T09:18:55;94231.50;;;4.50;46.56
28626;BME280;18905;42.668;23.364;2024-01-15T09:21:22;94227.63;;;3.82;48.42
28626;BME280;18905;42.668;23.364;2024-01-15T09:23:49;94236.19;;;3.28;49.83
28626;BME280;18905;42.668;23.364;2024-01-15T09:26:15;94216.06;;;2.88;50.54
28626;BME280;18905;42.668;23.364;2024-01-15T09:28:40;94235.78;;;2.62;51.21
28626;BME280;18905;42.668;23.364;2024-01-15T09:31:05;94231.53;;;2.43;52.15
28626;BME280;18905;42.668;23.364;2024-01-15T09:33:31;94222.22;;;2.18;51.79
28626;BME280;18905;42.668;23.364;2024-01-15T09:35:56;94220.00;;;1.96;53.19
28626;BME280;18905;42.668;23.364;2024-01-15T09:38:22;94218.22;;;1.92;53.17
28626;BME280;18905;42.668;23.364;2024-01-15T09:40:49;94212.41;;;1.56;54.75
28626;BME280;18905;42.668;23.364;2024-01-15T09:43:14;94206.31;;;1.52;54.03
28626;BME280;18905;42.668;23.364;2024-01-15T09:45:41;94202.25;;;1.71;53.73
28626;BME280;18905;42.668;23.364;2024-01-15T09:48:07;94198.69;;;1.47;54.23
28626;BME280;18905;42.668;23.364;2024-01-15T09:50:32;94184.94;;;1.88;53.62
28626;BME280;18905;42.668;23.364;2024-01-15T09:52:58;94185.97;;;1.77;54.20
28626;BME280;18905;42.668;23.364;2024-01-15T09:55:24;94173.81;;;1.69;54.06
28626;BME280;18905;42.668;23.364;2024-01-15T09:57:50;94163.69;;;0.94;56.72
28626;BME280;18905;42.668;23.364;2024-01-15T10:00:18;94165.22;;;1.15;56.39
28626;BME280;18905;42.668;23.364;2024-01-15T10:02:44;94153.53;;;0.89;56.35
28626;BME280;18905;42.668;23.364;2024-01-15T10:05:11;94146.41;;;0.60;57.29
28626;BME280;18905;42.668;23.364;2024-01-15T10:07:37;94166.47;;;0.92;56.94
28626;BME280;18905;42.668;23.364;2024-01-15T10:10:03;94155.56;;;0.92;56.75
28626;BME280;18905;42.668;23.364;2024-01-15T10:12:29;94177.63;;;0.91;56.09
28626;BME280;18905;42.668;23.364;2024-01-15T10:14:56;94149.50;;;1.28;54.64
28626;BME280;18905;42.668;23.364;2024-01-15T10:17:21;94152.28;;;1.16;55.32
28626;BME280;18905;42.668;23.364;2024-01-15T10:19:47;94139.34;;;1.08;55.47
28626;BME280;18905;42.668;23.364;2024-01-15T10:22:14;94135.53;;;0.85;56.48
28626;BME280;18905;42.668;23.364;2024-01-15T10:24:40;94139.84;;;1.25;55.83
28626;BME280;18905;42.668;23.364;2024-01-15T10:27:07;94111.66;;;1.31;55.71
28626;BME280;18905;42.668;23.364;2024-01-15T10:29:33;94116.25;;;1.34;55.85
28626;BME280;18905;42.668;23.364;2024-01-15T10:31:59;94125.53;;;1.79;54.46
28626;BME280;18905;42.668;23.364;2024-01-15T10:34:24;94116.84;;;2.00;53.99
28626;BME280;18905;42.668;23.364;2024-01-15T10:36:50;94093.91;;;1.31;55.68
28626;BME280;18905;42.668;23.364;2024-01-15T10:39:24;94107.81;;;1.59;55.51
28626;BME280;18905;42.668;23.364;2024-01-15T10:41:50;94099.22;;;1.45;55.35
28626;BME280;18905;42.668;23.364;2024-01-15T10:44:17;94112.91;;;1.54;56.07
28626;BME280;18905;42.668;23.364;2024-01-15T10:46:43;94100.69;;;1.76;55.90
28626;BME280;18905;42.668;23.364;2024-01-15T10:49:09;94112.38;;;1.57;56.43
28626;BME280;18905;42.668;23.364;2024-01-15T10:51:36;94102.00;;;1.54;57.09
28626;BME280;18905;42.668;23.364;2024-01-15T10:54:01;94090.97;;;1.83;55.79
28626;BME280;18905;42.668;23.364;2024-01-15T10:56:30;94100.19;;;1.54;56.38
28626;BME280;18905;42.668;23.364;2024-01-15T10:58:56;94086.84;;;2.02;55.52
28626;BME280;18905;42.668;23.364;2024-01-15T11:01:23;94077.03;;;1.81;55.84
28626;BME280;18905;42.668;23.364;2024-01-15T11:03:49;94082.81;;;1.96;55.96
28626;BME280;18905;42.668;23.364;2024-01-15T11:06:22;94083.50;;;2.17;54.93
28626;BME280;18905;42.668;23.364;2024-01-15T11:08:49;94063.47;;;2.05;54.89
28626;BME280;18905;42.668;23.364;2024-01-15T11:11:18;94079.81;;;2.33;54.66
28626;BME280;18905;42.668;23.364;2024-01-15T11:13:49;94076.97;;;3.12;52.85
28626;BME280;18905;42.668;23.364;2024-01-15T11:16:16;94066.28;;;2.48;53.85
28626;BME280;18905;42.668;23.364;2024-01-15T11:21:23;94062.38;;;2.94;53.93
28626;BME280;18905;42.668;23.364;2024-01-15T11:23:57;94057.47;;;3.31;53.09
28626;BME280;18905;42.668;23.364;2024-01-15T11:26:37;94040.88;;;3.81;50.34
28626;BME280;18905;42.668;23.364;2024-01-15T11:29:05;94043.25;;;3.96;50.34
28626;BME280;18905;42.668;23.364;2024-01-15T11:34:07;94045.09;;;4.09;51.16
28626;BME280;18905;42.668;23.364;2024-01-15T11:39:39;94042.81;;;3.71;51.12
28626;BME280;18905;42.668;23.364;2024-01-15T11:42:04;94031.78;;;4.36;50.00
28626;BME280;18905;42.668;23.364;2024-01-15T11:44:30;94021.59;;;4.68;48.31
28626;BME280;18905;42.668;23.364;2024-01-15T11:46:59;94017.28;;;4.13;50.27
28626;BME280;18905;42.668;23.364;2024-01-15T11:50:01;94036.97;;;4.07;50.86
28626;BME280;18905;42.668;23.364;2024-01-15T11:52:38;94026.44;;;4.32;50.12
28626;BME280;18905;42.668;23.364;2024-01-15T11:55:19;94035.56;;;4.20;50.21
28626;BME280;18905;42.668;23.364;2024-01-15T11:57:52;94028.03;;;4.66;48.49
28626;BME280;18905;42.668;23.364;2024-01-15T12:00:20;94005.84;;;4.48;48.81
28626;BME280;18905;42.668;23.364;2024-01-15T12:02:46;94002.88;;;4.73;48.40
28626;BME280;18905;42.668;23.364;2024-01-15T12:05:14;94007.69;;;4.93;47.46
28626;BME280;18905;42.668;23.364;2024-01-15T12:07:40;94006.38;;;4.63;48.68
28626;BME280;18905;42.668;23.364;2024-01-15T12:10:10;94010.66;;;4.49;49.38
28626;BME280;18905;42.668;23.364;2024-01-15T12:15:05;93970.38;;;4.14;49.86
28626;BME280;18905;42.668;23.364;2024-01-15T12:17:30;93973.41;;;3.79;51.76
28626;BME280;18905;42.668;23.364;2024-01-15T12:19:56;93989.09;;;4.23;50.72
28626;BME280;18905;42.668;23.364;2024-01-15T12:22:22;93994.66;;;4.44;49.57
28626;BME280;18905;42.668;23.364;2024-01-15T12:24:47;93986.41;;;4.52;49.79
28626;BME280;18905;42.668;23.364;2024-01-15T12:27:13;93977.88;;;4.05;50.36
28626;BME280;18905;42.668;23.364;2024-01-15T12:29:38;93977.69;;;4.02;50.11
28626;BME280;18905;42.668;23.364;2024-01-15T12:32:05;93972.78;;;4.05;51.01
28626;BME280;18905;42.668;23.364;2024-01-15T12:34:30;93970.03;;;4.02;51.06
28626;BME280;18905;42.668;23.364;2024-01-15T12:36:58;93982.56;;;4.35;51.34
28626;BME280;18905;42.668;23.364;2024-01-15T12:39:24;93977.19;;;4.69;49.72
28626;BME280;18905;42.668;23.364;2024-01-15T12:41:50;93980.13;;;4.44;49.47
28626;BME280;18905;42.668;23.364;2024-01-15T12:44:16;93961.94;;;4.32;49.78
28626;BME280;18905;42.668;23.364;2024-01-15T12:46:41;93971.72;;;4.44;50.15
28626;BME280;18905;42.668;23.364;2024-01-15T12:49:08;93962.59;;;4.24;50.86
28626;BME280;18905;42.668;23.364;2024-01-15T12:51:34;93968.53;;;4.52;50.03
28626;BME280;18905;42.668;23.364;2024-01-15T12:54:00;93958.84;;;4.35;49.59
28626;BME280;18905;42.668;23.364;2024-01-15T12:56:25;93967.22;;;4.54;50.13
28626;BME280;18905;42.668;23.364;2024-01-15T12:58:50;93955.13;;;4.60;49.43
28626;BME280;18905;42.668;23.364;2024-01-15T13:01:16;93940.03;;;4.63;50.03